createdAt,value
2023-09-30T00:03:02.206Z,20.08
2023-09-30T00:09:04.302Z,21.08
2023-09-30T00:15:06.346Z,18.92
2023-09-30T00:21:08.845Z,21.48
2023-09-30T00:27:10.729Z,23.23
2023-09-30T00:33:12.579Z,21.90
2023-09-30T00:39:14.529Z,20.13
2023-09-30T00:45:16.233Z,20.65
2023-09-30T00:51:18.362Z,22.65
2023-09-30T00:57:21.956Z,18.05
2023-09-30T01:03:24.430Z,18.67
2023-09-30T01:09:26.563Z,21.58
2023-09-30T01:15:30.324Z,19.45
2023-09-30T01:21:35.631Z,15.70
2023-09-30T01:27:37.275Z,20.05
2023-09-30T01:33:39.634Z,23.13
2023-09-30T01:45:44.065Z,16.77
2023-09-30T01:51:47.050Z,17.63
2023-09-30T01:57:48.691Z,20.70
2023-09-30T02:03:50.830Z,18.20
2023-09-30T02:09:52.440Z,20.25
2023-09-30T02:15:56.619Z,22.17
2023-09-30T02:21:58.460Z,18.85
2023-09-30T02:28:00.329Z,18.15
2023-09-30T02:34:04.921Z,23.13
2023-09-30T02:40:10.397Z,19.27
2023-09-30T02:46:13.772Z,26.55
2023-09-30T02:52:15.488Z,19.15
2023-09-30T02:58:17.140Z,21.27
2023-09-30T03:04:20.450Z,23.90
2023-09-30T03:10:25.093Z,20.88
2023-09-30T03:16:26.950Z,24.45
2023-09-30T03:22:28.516Z,22.08
2023-09-30T03:28:30.179Z,21.83
2023-09-30T03:34:31.761Z,24.08
2023-09-30T03:40:35.068Z,21.75
2023-09-30T03:46:36.711Z,23.13
2023-09-30T03:52:38.512Z,22.25
2023-09-30T03:58:41.354Z,20.15
2023-09-30T04:04:43.490Z,20.08
2023-09-30T04:10:45.171Z,23.63
2023-09-30T04:16:46.741Z,21.95
2023-09-30T04:22:50.187Z,21.95
2023-09-30T04:28:52.715Z,20.92
2023-09-30T04:34:54.747Z,22.17
2023-09-30T04:40:57.560Z,16.40
2023-09-30T04:46:59.201Z,19.48
2023-09-30T04:53:00.883Z,22.98
2023-09-30T04:59:03.324Z,22.50
2023-09-30T05:05:08.481Z,21.23
2023-09-30T05:11:10.076Z,21.13
2023-09-30T05:17:12.525Z,19.38
2023-09-30T05:23:15.757Z,18.67
2023-09-30T05:29:17.952Z,19.05
2023-09-30T05:35:19.601Z,21.58
2023-09-30T05:41:21.939Z,19.10
2023-09-30T05:47:23.709Z,18.23
2023-09-30T05:53:26.197Z,17.75
2023-09-30T06:05:31.632Z,20.05
2023-09-30T06:11:33.627Z,17.48
2023-09-30T06:17:35.284Z,18.15
2023-09-30T06:23:36.936Z,16.98
2023-09-30T06:29:41.823Z,16.27
2023-09-30T06:35:51.357Z,15.98
2023-09-30T06:41:52.929Z,13.75
2023-09-30T06:47:55.959Z,14.70
2023-09-30T06:53:57.621Z,13.60
2023-09-30T06:59:59.296Z,10.45
2023-09-30T07:06:01.796Z,9.85
2023-09-30T07:12:03.407Z,15.05
2023-09-30T07:18:05.290Z,13.00
2023-09-30T07:24:07.244Z,8.68
2023-09-30T07:30:09.231Z,9.98
2023-09-30T07:36:10.868Z,10.13
2023-09-30T07:48:15.942Z,10.98
2023-09-30T07:54:30.780Z,10.77
2023-09-30T08:00:34.995Z,11.45
2023-09-30T08:06:36.827Z,12.80
2023-09-30T08:12:38.573Z,10.85
2023-09-30T08:18:40.209Z,10.73
2023-09-30T08:30:44.472Z,9.02
2023-09-30T08:36:46.086Z,8.57
2023-09-30T08:42:52.471Z,7.15
2023-09-30T08:48:56.630Z,10.77
2023-09-30T08:54:58.369Z,21.23
2023-09-30T09:01:00.044Z,6.95
2023-09-30T09:07:01.774Z,7.22
2023-09-30T09:13:03.525Z,8.95
2023-09-30T09:19:16.336Z,7.28
2023-09-30T09:25:18.225Z,7.22
2023-09-30T09:31:24.917Z,7.53
2023-09-30T09:37:26.515Z,9.52
2023-09-30T09:43:28.187Z,8.88
2023-09-30T09:49:33.817Z,7.43
2023-09-30T09:55:37.764Z,7.05
2023-09-30T10:01:41.481Z,7.20
2023-09-30T10:07:51.236Z,7.28
2023-09-30T10:13:54.861Z,7.72
2023-09-30T10:20:08.878Z,7.43
2023-09-30T10:26:10.586Z,7.32
2023-09-30T10:32:12.212Z,8.13
2023-09-30T10:38:23.137Z,6.90
2023-09-30T10:44:27.697Z,8.45
2023-09-30T10:50:52.229Z,7.07
2023-09-30T10:56:54.560Z,8.40
2023-09-30T11:02:57.567Z,8.27
2023-09-30T11:09:02.078Z,7.80
2023-09-30T11:15:04.374Z,8.85
2023-09-30T11:21:11.759Z,8.02
2023-09-30T11:27:13.599Z,12.40
2023-09-30T11:33:15.176Z,10.90
2023-09-30T11:39:28.395Z,8.82
2023-09-30T11:45:30.461Z,10.77
2023-09-30T11:51:44.642Z,11.55
2023-09-30T11:57:46.800Z,15.30
2023-09-30T12:03:53.775Z,16.45
2023-09-30T12:09:57.167Z,12.50
2023-09-30T12:15:58.888Z,11.07
2023-09-30T12:22:00.520Z,11.90
2023-09-30T12:28:02.176Z,11.50
2023-09-30T12:34:03.813Z,10.45
2023-09-30T12:40:08.821Z,20.10
2023-09-30T12:46:10.670Z,14.40
2023-09-30T12:52:12.654Z,14.48
2023-09-30T12:58:14.359Z,15.52
2023-09-30T13:04:16.125Z,14.32
2023-09-30T13:10:17.761Z,14.82
2023-09-30T13:16:19.673Z,14.43
2023-09-30T13:22:21.430Z,13.43
2023-09-30T13:28:23.012Z,27.52
2023-09-30T13:34:24.621Z,14.30
2023-09-30T13:40:26.674Z,13.77
2023-09-30T13:46:29.394Z,14.75
2023-09-30T13:52:32.844Z,14.15
2023-09-30T13:58:35.795Z,15.07
2023-09-30T14:04:37.375Z,13.02
2023-09-30T14:10:39.275Z,17.00
2023-09-30T14:16:40.943Z,14.18
2023-09-30T14:22:42.645Z,16.65
2023-09-30T14:28:46.234Z,17.33
2023-09-30T14:34:48.156Z,13.98
2023-09-30T14:40:51.272Z,14.32
2023-09-30T14:46:53.454Z,13.25
2023-09-30T14:52:55.302Z,13.02
2023-09-30T14:58:58.113Z,12.48
2023-09-30T15:04:59.789Z,13.05
2023-09-30T15:11:02.011Z,12.55
2023-09-30T15:17:03.629Z,17.58
2023-09-30T15:23:05.535Z,13.25
2023-09-30T15:29:07.097Z,13.77
2023-09-30T15:35:09.435Z,15.80
2023-09-30T15:41:13.788Z,13.48
2023-09-30T15:47:15.327Z,12.43
2023-09-30T15:59:19.634Z,15.27
2023-09-30T16:05:28.754Z,12.90
2023-09-30T16:11:30.418Z,12.05
2023-09-30T16:23:34.115Z,12.35
2023-09-30T16:29:36.571Z,11.27
2023-09-30T16:35:38.148Z,13.35
2023-09-30T16:41:39.689Z,13.32
2023-09-30T16:47:41.323Z,13.10
2023-09-30T16:53:42.914Z,12.00
2023-09-30T16:59:46.526Z,11.88
2023-09-30T17:05:49.177Z,14.18
2023-09-30T17:11:50.712Z,14.10
2023-09-30T17:17:52.292Z,14.07
2023-09-30T17:23:53.940Z,15.85
2023-09-30T17:29:56.427Z,14.35
2023-09-30T17:36:05.161Z,14.07
2023-09-30T17:42:07.017Z,14.68
2023-09-30T17:48:10.524Z,13.98
2023-09-30T17:54:12.297Z,13.13
2023-09-30T18:00:14.575Z,13.23
2023-09-30T18:06:16.408Z,13.57
2023-09-30T18:12:17.993Z,13.65
2023-09-30T18:18:19.597Z,15.90
2023-09-30T18:24:21.407Z,14.15
2023-09-30T18:30:22.969Z,15.68
2023-09-30T18:36:24.628Z,14.10
2023-09-30T18:42:26.648Z,16.13
2023-09-30T18:48:28.271Z,12.70
2023-09-30T18:54:30.126Z,13.77
2023-09-30T19:00:32.892Z,13.82
2023-09-30T19:06:34.936Z,14.27
2023-09-30T19:12:36.594Z,12.32
2023-09-30T19:18:38.213Z,13.38
2023-09-30T19:24:39.844Z,13.20
2023-09-30T19:30:44.208Z,11.60
2023-09-30T19:36:46.000Z,12.15
2023-09-30T19:42:53.105Z,13.90
2023-09-30T19:48:55.910Z,12.63
2023-09-30T19:54:57.661Z,17.48
2023-09-30T20:00:59.525Z,14.07
2023-09-30T20:07:01.822Z,13.70
2023-09-30T20:13:09.115Z,12.95
2023-09-30T20:19:11.402Z,15.02
2023-09-30T20:25:14.912Z,14.63
2023-09-30T20:31:17.049Z,12.85
2023-09-30T20:37:18.686Z,12.55
2023-09-30T20:43:20.314Z,15.27
2023-09-30T20:49:21.997Z,14.57
2023-09-30T20:55:23.620Z,14.50
2023-09-30T21:01:25.808Z,15.52
2023-09-30T21:07:28.911Z,16.95
2023-09-30T21:13:30.529Z,16.73
2023-09-30T21:19:32.145Z,16.90
2023-09-30T21:25:36.881Z,16.65
2023-09-30T21:31:38.569Z,15.93
2023-09-30T21:37:40.208Z,15.75
2023-09-30T21:43:42.247Z,15.40
2023-09-30T21:55:48.607Z,15.57
2023-09-30T22:01:50.202Z,17.63
2023-09-30T22:07:51.779Z,16.35
2023-09-30T22:13:53.319Z,16.17
2023-09-30T22:19:54.864Z,20.85
2023-09-30T22:25:56.438Z,19.98
2023-09-30T22:31:58.014Z,16.83
2023-09-30T22:38:00.812Z,19.80
2023-09-30T22:44:02.322Z,15.38
2023-09-30T22:50:04.100Z,15.60
2023-09-30T22:56:05.679Z,25.33
2023-09-30T23:02:07.951Z,15.90
2023-09-30T23:08:09.557Z,17.27
2023-09-30T23:14:11.084Z,16.80
2023-09-30T23:20:15.977Z,16.80
2023-09-30T23:26:19.715Z,16.20
2023-09-30T23:32:21.313Z,14.88
2023-09-30T23:38:23.282Z,16.23
2023-09-30T23:44:25.197Z,13.82
2023-09-30T23:50:27.258Z,16.05
2023-09-30T23:56:29.693Z,15.23
